sensor_id;sensor_type;location;lat;lon;timestamp;P1;durP1;ratioP1;P2;durP2;ratioP2
60436;SDS011;46289;51.992;4.498;2023-10-08T00:00:28;27.58;;;6.43;;
60436;SDS011;46289;51.992;4.498;2023-10-08T00:02:47;17.15;;;5.93;;
60436;SDS011;46289;51.992;4.498;2023-10-08T00:04:54;13.70;;;5.22;;
60436;SDS011;46289;51.992;4.498;2023-10-08T00:09:30;20.25;;;6.10;;
60436;SDS011;46289;51.992;4.498;2023-10-08T00:11:38;17.40;;;5.75;;
60436;SDS011;46289;51.992;4.498;2023-10-08T00:13:47;18.52;;;6.32;;
60436;SDS011;46289;51.992;4.498;2023-10-08T00:16:01;20.45;;;6.40;;
60436;SDS011;46289;51.992;4.498;2023-10-08T00:18:28;21.75;;;5.53;;
60436;SDS011;46289;51.992;4.498;2023-10-08T00:20:38;18.65;;;5.70;;
60436;SDS011;46289;51.992;4.498;2023-10-08T00:22:59;17.35;;;6.22;;
60436;SDS011;46289;51.992;4.498;2023-10-08T00:25:09;12.98;;;5.40;;
60436;SDS011;46289;51.992;4.498;2023-10-08T00:27:18;14.82;;;5.63;;
60436;SDS011;46289;51.992;4.498;2023-10-08T00:29:25;21.70;;;6.22;;
60436;SDS011;46289;51.992;4.498;2023-10-08T00:31:38;19.40;;;5.75;;
60436;SDS011;46289;51.992;4.498;2023-10-08T00:33:48;18.60;;;6.20;;
60436;SDS011;46289;51.992;4.498;2023-10-08T00:36:04;21.25;;;6.82;;
60436;SDS011;46289;51.992;4.498;2023-10-08T00:38:22;16.55;;;6.43;;
60436;SDS011;46289;51.992;4.498;2023-10-08T00:40:36;18.80;;;6.53;;
60436;SDS011;46289;51.992;4.498;2023-10-08T00:43:04;17.13;;;6.38;;
60436;SDS011;46289;51.992;4.498;2023-10-08T00:45:17;17.35;;;5.85;;
60436;SDS011;46289;51.992;4.498;2023-10-08T00:47:41;25.05;;;8.38;;
60436;SDS011;46289;51.992;4.498;2023-10-08T00:52:26;21.13;;;5.63;;
60436;SDS011;46289;51.992;4.498;2023-10-08T00:54:49;17.88;;;6.78;;
60436;SDS011;46289;51.992;4.498;2023-10-08T00:57:02;19.63;;;6.32;;
60436;SDS011;46289;51.992;4.498;2023-10-08T00:59:14;19.92;;;6.75;;
60436;SDS011;46289;51.992;4.498;2023-10-08T01:01:22;19.85;;;6.07;;
60436;SDS011;46289;51.992;4.498;2023-10-08T01:03:33;17.23;;;6.75;;
60436;SDS011;46289;51.992;4.498;2023-10-08T01:05:48;19.10;;;7.32;;
60436;SDS011;46289;51.992;4.498;2023-10-08T01:07:56;15.20;;;6.10;;
60436;SDS011;46289;51.992;4.498;2023-10-08T01:10:10;14.90;;;6.57;;
60436;SDS011;46289;51.992;4.498;2023-10-08T01:12:23;19.40;;;6.38;;
60436;SDS011;46289;51.992;4.498;2023-10-08T01:14:34;20.05;;;6.05;;
60436;SDS011;46289;51.992;4.498;2023-10-08T01:16:48;24.90;;;6.22;;
60436;SDS011;46289;51.992;4.498;2023-10-08T01:18:58;16.42;;;6.22;;
60436;SDS011;46289;51.992;4.498;2023-10-08T01:21:17;20.88;;;7.60;;
60436;SDS011;46289;51.992;4.498;2023-10-08T01:23:44;18.70;;;6.57;;
60436;SDS011;46289;51.992;4.498;2023-10-08T01:26:00;24.25;;;7.68;;
60436;SDS011;46289;51.992;4.498;2023-10-08T01:28:28;21.17;;;7.28;;
60436;SDS011;46289;51.992;4.498;2023-10-08T01:30:43;21.63;;;7.18;;
60436;SDS011;46289;51.992;4.498;2023-10-08T01:32:50;24.70;;;8.48;;
60436;SDS011;46289;51.992;4.498;2023-10-08T01:35:21;28.33;;;7.70;;
60436;SDS011;46289;51.992;4.498;2023-10-08T01:37:32;16.50;;;6.78;;
60436;SDS011;46289;51.992;4.498;2023-10-08T01:39:50;17.70;;;6.93;;
60436;SDS011;46289;51.992;4.498;2023-10-08T01:42:05;18.92;;;6.80;;
60436;SDS011;46289;51.992;4.498;2023-10-08T01:44:17;26.15;;;7.38;;
60436;SDS011;46289;51.992;4.498;2023-10-08T01:46:26;18.63;;;7.22;;
60436;SDS011;46289;51.992;4.498;2023-10-08T01:48:34;18.00;;;7.13;;
60436;SDS011;46289;51.992;4.498;2023-10-08T01:53:22;24.30;;;7.45;;
60436;SDS011;46289;51.992;4.498;2023-10-08T01:55:43;25.83;;;7.70;;
60436;SDS011;46289;51.992;4.498;2023-10-08T01:57:57;21.38;;;7.07;;
60436;SDS011;46289;51.992;4.498;2023-10-08T02:00:07;21.98;;;7.72;;
60436;SDS011;46289;51.992;4.498;2023-10-08T02:02:16;24.45;;;7.80;;
60436;SDS011;46289;51.992;4.498;2023-10-08T02:04:22;22.20;;;6.93;;
60436;SDS011;46289;51.992;4.498;2023-10-08T02:06:30;26.33;;;8.48;;
60436;SDS011;46289;51.992;4.498;2023-10-08T02:08:39;15.50;;;6.60;;
60436;SDS011;46289;51.992;4.498;2023-10-08T02:10:56;24.73;;;7.85;;
60436;SDS011;46289;51.992;4.498;2023-10-08T02:13:15;19.05;;;7.05;;
60436;SDS011;46289;51.992;4.498;2023-10-08T02:15:23;24.33;;;7.18;;
60436;SDS011;46289;51.992;4.498;2023-10-08T02:17:37;19.50;;;7.85;;
60436;SDS011;46289;51.992;4.498;2023-10-08T02:19:45;22.25;;;8.02;;
60436;SDS011;46289;51.992;4.498;2023-10-08T02:21:54;21.17;;;7.57;;
60436;SDS011;46289;51.992;4.498;2023-10-08T02:24:03;23.42;;;7.28;;
60436;SDS011;46289;51.992;4.498;2023-10-08T02:26:12;21.75;;;8.23;;
60436;SDS011;46289;51.992;4.498;2023-10-08T02:28:25;19.52;;;6.43;;
60436;SDS011;46289;51.992;4.498;2023-10-08T02:30:31;20.23;;;7.35;;
60436;SDS011;46289;51.992;4.498;2023-10-08T02:32:36;26.40;;;7.07;;
60436;SDS011;46289;51.992;4.498;2023-10-08T02:34:49;25.48;;;7.25;;
60436;SDS011;46289;51.992;4.498;2023-10-08T02:36:54;16.13;;;7.20;;
60436;SDS011;46289;51.992;4.498;2023-10-08T02:39:03;18.52;;;6.50;;
60436;SDS011;46289;51.992;4.498;2023-10-08T02:41:18;25.50;;;7.32;;
60436;SDS011;46289;51.992;4.498;2023-10-08T02:43:26;12.48;;;6.53;;
60436;SDS011;46289;51.992;4.498;2023-10-08T02:45:34;19.38;;;7.53;;
60436;SDS011;46289;51.992;4.498;2023-10-08T02:47:41;21.08;;;7.28;;
60436;SDS011;46289;51.992;4.498;2023-10-08T02:49:50;21.65;;;7.93;;
60436;SDS011;46289;51.992;4.498;2023-10-08T02:51:57;16.60;;;7.13;;
60436;SDS011;46289;51.992;4.498;2023-10-08T02:54:06;17.95;;;7.40;;
60436;SDS011;46289;51.992;4.498;2023-10-08T02:56:21;20.13;;;7.68;;
60436;SDS011;46289;51.992;4.498;2023-10-08T02:58:27;16.75;;;6.80;;
60436;SDS011;46289;51.992;4.498;2023-10-08T03:00:35;18.42;;;6.60;;
60436;SDS011;46289;51.992;4.498;2023-10-08T03:02:45;18.63;;;6.93;;
60436;SDS011;46289;51.992;4.498;2023-10-08T03:05:06;19.45;;;6.32;;
60436;SDS011;46289;51.992;4.498;2023-10-08T03:07:18;15.82;;;6.60;;
60436;SDS011;46289;51.992;4.498;2023-10-08T03:09:37;14.90;;;6.57;;
60436;SDS011;46289;51.992;4.498;2023-10-08T03:11:50;16.95;;;7.18;;
60436;SDS011;46289;51.992;4.498;2023-10-08T03:13:57;17.35;;;6.63;;
60436;SDS011;46289;51.992;4.498;2023-10-08T03:16:22;15.68;;;7.07;;
60436;SDS011;46289;51.992;4.498;2023-10-08T03:18:36;16.92;;;6.38;;
60436;SDS011;46289;51.992;4.498;2023-10-08T03:20:54;17.63;;;7.03;;
60436;SDS011;46289;51.992;4.498;2023-10-08T03:23:05;19.48;;;7.20;;
60436;SDS011;46289;51.992;4.498;2023-10-08T03:25:27;19.65;;;7.50;;
60436;SDS011;46289;51.992;4.498;2023-10-08T03:27:38;20.00;;;7.53;;
60436;SDS011;46289;51.992;4.498;2023-10-08T03:29:48;19.35;;;7.13;;
60436;SDS011;46289;51.992;4.498;2023-10-08T03:32:01;19.20;;;6.65;;
60436;SDS011;46289;51.992;4.498;2023-10-08T03:34:27;19.83;;;7.32;;
60436;SDS011;46289;51.992;4.498;2023-10-08T03:36:36;18.33;;;7.18;;
60436;SDS011;46289;51.992;4.498;2023-10-08T03:38:49;17.77;;;7.57;;
60436;SDS011;46289;51.992;4.498;2023-10-08T03:40:56;17.00;;;6.55;;
60436;SDS011;46289;51.992;4.498;2023-10-08T03:43:08;16.88;;;7.80;;
60436;SDS011;46289;51.992;4.498;2023-10-08T03:45:23;18.95;;;7.25;;
60436;SDS011;46289;51.992;4.498;2023-10-08T03:47:43;14.98;;;6.22;;
60436;SDS011;46289;51.992;4.498;2023-10-08T03:50:06;17.35;;;7.32;;
60436;SDS011;46289;51.992;4.498;2023-10-08T03:52:21;18.10;;;8.23;;
60436;SDS011;46289;51.992;4.498;2023-10-08T03:54:47;23.08;;;7.43;;
60436;SDS011;46289;51.992;4.498;2023-10-08T03:57:05;18.55;;;7.68;;
60436;SDS011;46289;51.992;4.498;2023-10-08T03:59:19;17.50;;;7.88;;
60436;SDS011;46289;51.992;4.498;2023-10-08T04:01:32;17.10;;;7.35;;
60436;SDS011;46289;51.992;4.498;2023-10-08T04:03:48;16.50;;;6.93;;
60436;SDS011;46289;51.992;4.498;2023-10-08T04:06:11;18.67;;;6.47;;
60436;SDS011;46289;51.992;4.498;2023-10-08T04:08:32;21.65;;;7.50;;
60436;SDS011;46289;51.992;4.498;2023-10-08T04:10:52;18.55;;;7.50;;
60436;SDS011;46289;51.992;4.498;2023-10-08T04:13:13;20.70;;;8.30;;
60436;SDS011;46289;51.992;4.498;2023-10-08T04:15:24;20.23;;;7.72;;
60436;SDS011;46289;51.992;4.498;2023-10-08T04:17:34;15.60;;;6.38;;
60436;SDS011;46289;51.992;4.498;2023-10-08T04:19:48;21.55;;;7.45;;
60436;SDS011;46289;51.992;4.498;2023-10-08T04:21:58;23.42;;;7.90;;
60436;SDS011;46289;51.992;4.498;2023-10-08T04:24:07;18.10;;;7.55;;
60436;SDS011;46289;51.992;4.498;2023-10-08T04:26:18;16.80;;;6.82;;
60436;SDS011;46289;51.992;4.498;2023-10-08T04:28:28;21.15;;;8.25;;
60436;SDS011;46289;51.992;4.498;2023-10-08T04:30:48;18.67;;;7.50;;
60436;SDS011;46289;51.992;4.498;2023-10-08T04:33:08;20.05;;;7.82;;
60436;SDS011;46289;51.992;4.498;2023-10-08T04:35:17;20.35;;;8.07;;
60436;SDS011;46289;51.992;4.498;2023-10-08T04:37:32;18.80;;;7.82;;
60436;SDS011;46289;51.992;4.498;2023-10-08T04:39:43;19.90;;;7.75;;
60436;SDS011;46289;51.992;4.498;2023-10-08T04:42:01;20.27;;;7.85;;
60436;SDS011;46289;51.992;4.498;2023-10-08T04:44:12;28.63;;;9.25;;
60436;SDS011;46289;51.992;4.498;2023-10-08T04:46:23;19.80;;;7.65;;
60436;SDS011;46289;51.992;4.498;2023-10-08T04:48:58;20.58;;;7.30;;
60436;SDS011;46289;51.992;4.498;2023-10-08T04:51:07;19.60;;;8.40;;
60436;SDS011;46289;51.992;4.498;2023-10-08T04:53:18;16.85;;;7.72;;
60436;SDS011;46289;51.992;4.498;2023-10-08T04:55:36;22.20;;;8.63;;
60436;SDS011;46289;51.992;4.498;2023-10-08T04:57:53;18.55;;;8.32;;
60436;SDS011;46289;51.992;4.498;2023-10-08T05:00:04;24.60;;;7.95;;
60436;SDS011;46289;51.992;4.498;2023-10-08T05:02:19;17.60;;;7.35;;
60436;SDS011;46289;51.992;4.498;2023-10-08T05:04:22;16.70;;;7.68;;
60436;SDS011;46289;51.992;4.498;2023-10-08T05:06:33;20.55;;;8.38;;
60436;SDS011;46289;51.992;4.498;2023-10-08T05:08:56;17.17;;;7.10;;
60436;SDS011;46289;51.992;4.498;2023-10-08T05:11:22;24.25;;;8.15;;
60436;SDS011;46289;51.992;4.498;2023-10-08T05:13:51;17.58;;;7.68;;
60436;SDS011;46289;51.992;4.498;2023-10-08T05:16:15;16.40;;;7.15;;
60436;SDS011;46289;51.992;4.498;2023-10-08T05:18:46;20.48;;;7.43;;
60436;SDS011;46289;51.992;4.498;2023-10-08T05:21:04;23.15;;;8.57;;
60436;SDS011;46289;51.992;4.498;2023-10-08T05:23:29;19.50;;;8.23;;
60436;SDS011;46289;51.992;4.498;2023-10-08T05:25:56;22.00;;;7.28;;
60436;SDS011;46289;51.992;4.498;2023-10-08T05:28:14;23.52;;;7.72;;
60436;SDS011;46289;51.992;4.498;2023-10-08T05:30:33;20.38;;;8.02;;
60436;SDS011;46289;51.992;4.498;2023-10-08T05:32:49;20.00;;;8.02;;
60436;SDS011;46289;51.992;4.498;2023-10-08T05:35:13;19.45;;;8.52;;
60436;SDS011;46289;51.992;4.498;2023-10-08T05:37:34;22.88;;;8.52;;
60436;SDS011;46289;51.992;4.498;2023-10-08T05:39:48;24.05;;;7.95;;
60436;SDS011;46289;51.992;4.498;2023-10-08T05:42:08;21.90;;;9.40;;
60436;SDS011;46289;51.992;4.498;2023-10-08T05:44:22;20.27;;;7.40;;
60436;SDS011;46289;51.992;4.498;2023-10-08T05:46:50;22.17;;;9.90;;
60436;SDS011;46289;51.992;4.498;2023-10-08T05:49:33;25.00;;;8.85;;
60436;SDS011;46289;51.992;4.498;2023-10-08T05:52:01;25.30;;;7.85;;
60436;SDS011;46289;51.992;4.498;2023-10-08T05:54:27;20.17;;;8.50;;
60436;SDS011;46289;51.992;4.498;2023-10-08T05:56:39;25.95;;;8.30;;
60436;SDS011;46289;51.992;4.498;2023-10-08T05:59:09;19.40;;;8.07;;
60436;SDS011;46289;51.992;4.498;2023-10-08T06:01:31;21.45;;;7.35;;
60436;SDS011;46289;51.992;4.498;2023-10-08T06:03:43;20.88;;;7.00;;
60436;SDS011;46289;51.992;4.498;2023-10-08T06:06:04;30.00;;;7.25;;
60436;SDS011;46289;51.992;4.498;2023-10-08T06:08:25;18.00;;;6.90;;
60436;SDS011;46289;51.992;4.498;2023-10-08T06:10:58;22.17;;;6.18;;
60436;SDS011;46289;51.992;4.498;2023-10-08T06:13:24;21.80;;;6.40;;
60436;SDS011;46289;51.992;4.498;2023-10-08T06:15:48;20.58;;;5.28;;
60436;SDS011;46289;51.992;4.498;2023-10-08T06:18:07;17.10;;;5.18;;
60436;SDS011;46289;51.992;4.498;2023-10-08T06:20:13;16.15;;;5.60;;
60436;SDS011;46289;51.992;4.498;2023-10-08T06:25:24;14.50;;;4.72;;
60436;SDS011;46289;51.992;4.498;2023-10-08T06:27:49;11.50;;;4.32;;
60436;SDS011;46289;51.992;4.498;2023-10-08T06:29:59;14.73;;;4.43;;
60436;SDS011;46289;51.992;4.498;2023-10-08T06:32:13;17.48;;;5.22;;
60436;SDS011;46289;51.992;4.498;2023-10-08T06:34:24;11.00;;;3.92;;
60436;SDS011;46289;51.992;4.498;2023-10-08T06:36:35;13.75;;;4.82;;
60436;SDS011;46289;51.992;4.498;2023-10-08T06:38:58;14.75;;;4.63;;
60436;SDS011;46289;51.992;4.498;2023-10-08T06:41:09;19.42;;;5.30;;
60436;SDS011;46289;51.992;4.498;2023-10-08T06:43:33;16.35;;;4.57;;
60436;SDS011;46289;51.992;4.498;2023-10-08T06:45:41;12.57;;;4.88;;
60436;SDS011;46289;51.992;4.498;2023-10-08T06:47:59;19.05;;;5.45;;
60436;SDS011;46289;51.992;4.498;2023-10-08T06:50:09;16.83;;;5.40;;
60436;SDS011;46289;51.992;4.498;2023-10-08T06:52:17;14.90;;;5.53;;
60436;SDS011;46289;51.992;4.498;2023-10-08T06:54:44;14.32;;;6.03;;
60436;SDS011;46289;51.992;4.498;2023-10-08T06:57:03;19.92;;;6.65;;
60436;SDS011;46289;51.992;4.498;2023-10-08T06:59:17;18.67;;;6.20;;
60436;SDS011;46289;51.992;4.498;2023-10-08T07:01:27;21.80;;;7.45;;
60436;SDS011;46289;51.992;4.498;2023-10-08T07:03:51;16.90;;;5.85;;
60436;SDS011;46289;51.992;4.498;2023-10-08T07:06:07;23.98;;;8.23;;
60436;SDS011;46289;51.992;4.498;2023-10-08T07:08:38;24.17;;;6.47;;
60436;SDS011;46289;51.992;4.498;2023-10-08T07:10:52;21.33;;;7.60;;
60436;SDS011;46289;51.992;4.498;2023-10-08T07:13:05;24.77;;;7.15;;
60436;SDS011;46289;51.992;4.498;2023-10-08T07:15:16;22.80;;;7.50;;
60436;SDS011;46289;51.992;4.498;2023-10-08T07:17:30;25.70;;;7.15;;
60436;SDS011;46289;51.992;4.498;2023-10-08T07:19:45;24.60;;;6.55;;
60436;SDS011;46289;51.992;4.498;2023-10-08T07:21:53;30.10;;;8.27;;
60436;SDS011;46289;51.992;4.498;2023-10-08T07:24:41;24.33;;;7.53;;
60436;SDS011;46289;51.992;4.498;2023-10-08T07:27:00;21.58;;;7.47;;
60436;SDS011;46289;51.992;4.498;2023-10-08T07:29:13;21.65;;;7.13;;
60436;SDS011;46289;51.992;4.498;2023-10-08T07:31:24;26.30;;;7.03;;
60436;SDS011;46289;51.992;4.498;2023-10-08T07:33:33;20.38;;;6.03;;
60436;SDS011;46289;51.992;4.498;2023-10-08T07:35:38;22.50;;;6.68;;
60436;SDS011;46289;51.992;4.498;2023-10-08T07:37:46;23.35;;;6.18;;
60436;SDS011;46289;51.992;4.498;2023-10-08T07:39:53;20.73;;;6.88;;
60436;SDS011;46289;51.992;4.498;2023-10-08T07:42:01;23.77;;;5.65;;
60436;SDS011;46289;51.992;4.498;2023-10-08T07:44:07;20.63;;;5.55;;
60436;SDS011;46289;51.992;4.498;2023-10-08T07:46:20;20.48;;;6.25;;
60436;SDS011;46289;51.992;4.498;2023-10-08T07:48:28;19.05;;;4.72;;
60436;SDS011;46289;51.992;4.498;2023-10-08T07:50:34;21.67;;;6.10;;
60436;SDS011;46289;51.992;4.498;2023-10-08T07:52:41;19.55;;;5.40;;
60436;SDS011;46289;51.992;4.498;2023-10-08T07:54:51;17.30;;;5.63;;
60436;SDS011;46289;51.992;4.498;2023-10-08T07:56:57;22.77;;;6.28;;
60436;SDS011;46289;51.992;4.498;2023-10-08T07:59:12;20.88;;;5.43;;
60436;SDS011;46289;51.992;4.498;2023-10-08T08:01:28;18.52;;;5.60;;
60436;SDS011;46289;51.992;4.498;2023-10-08T08:03:46;14.70;;;4.90;;
60436;SDS011;46289;51.992;4.498;2023-10-08T08:05:56;20.38;;;5.95;;
60436;SDS011;46289;51.992;4.498;2023-10-08T08:08:04;15.05;;;5.30;;
60436;SDS011;46289;51.992;4.498;2023-10-08T08:10:13;12.90;;;5.10;;
60436;SDS011;46289;51.992;4.498;2023-10-08T08:12:26;19.48;;;5.20;;
60436;SDS011;46289;51.992;4.498;2023-10-08T08:17:33;16.77;;;5.20;;
60436;SDS011;46289;51.992;4.498;2023-10-08T08:19:54;15.40;;;6.10;;
60436;SDS011;46289;51.992;4.498;2023-10-08T08:22:11;19.92;;;6.20;;
60436;SDS011;46289;51.992;4.498;2023-10-08T08:24:28;21.20;;;5.43;;
60436;SDS011;46289;51.992;4.498;2023-10-08T08:26:39;18.90;;;4.90;;
60436;SDS011;46289;51.992;4.498;2023-10-08T08:29:03;15.88;;;5.05;;
60436;SDS011;46289;51.992;4.498;2023-10-08T08:31:19;17.02;;;6.88;;
60436;SDS011;46289;51.992;4.498;2023-10-08T08:36:11;18.00;;;4.97;;
60436;SDS011;46289;51.992;4.498;2023-10-08T08:38:36;19.25;;;6.47;;
60436;SDS011;46289;51.992;4.498;2023-10-08T08:41:02;24.35;;;6.00;;
60436;SDS011;46289;51.992;4.498;2023-10-08T08:43:09;21.23;;;6.22;;
60436;SDS011;46289;51.992;4.498;2023-10-08T08:45:19;17.20;;;5.53;;
60436;SDS011;46289;51.992;4.498;2023-10-08T08:47:27;17.42;;;5.32;;
60436;SDS011;46289;51.992;4.498;2023-10-08T08:49:38;18.23;;;5.75;;
60436;SDS011;46289;51.992;4.498;2023-10-08T08:51:50;18.83;;;5.35;;
60436;SDS011;46289;51.992;4.498;2023-10-08T08:53:59;16.63;;;5.65;;
60436;SDS011;46289;51.992;4.498;2023-10-08T08:56:08;18.95;;;5.65;;
60436;SDS011;46289;51.992;4.498;2023-10-08T08:58:17;18.70;;;6.15;;
60436;SDS011;46289;51.992;4.498;2023-10-08T09:00:25;17.85;;;6.20;;
60436;SDS011;46289;51.992;4.498;2023-10-08T09:02:35;26.15;;;6.97;;
60436;SDS011;46289;51.992;4.498;2023-10-08T09:04:47;17.33;;;6.22;;
60436;SDS011;46289;51.992;4.498;2023-10-08T09:06:58;19.13;;;7.45;;
60436;SDS011;46289;51.992;4.498;2023-10-08T09:09:06;18.23;;;5.85;;
60436;SDS011;46289;51.992;4.498;2023-10-08T09:11:25;22.92;;;6.40;;
60436;SDS011;46289;51.992;4.498;2023-10-08T09:13:36;21.52;;;5.93;;
60436;SDS011;46289;51.992;4.498;2023-10-08T09:16:02;20.67;;;6.47;;
60436;SDS011;46289;51.992;4.498;2023-10-08T09:20:57;25.92;;;8.35;;
60436;SDS011;46289;51.992;4.498;2023-10-08T09:23:23;21.85;;;8.02;;
60436;SDS011;46289;51.992;4.498;2023-10-08T09:25:31;22.85;;;7.78;;
60436;SDS011;46289;51.992;4.498;2023-10-08T09:27:44;25.73;;;7.63;;
60436;SDS011;46289;51.992;4.498;2023-10-08T09:29:50;19.73;;;6.32;;
60436;SDS011;46289;51.992;4.498;2023-10-08T09:32:06;16.70;;;6.15;;
60436;SDS011;46289;51.992;4.498;2023-10-08T09:34:28;15.05;;;5.70;;
60436;SDS011;46289;51.992;4.498;2023-10-08T09:36:36;20.33;;;6.00;;
60436;SDS011;46289;51.992;4.498;2023-10-08T09:38:46;20.42;;;5.20;;
60436;SDS011;46289;51.992;4.498;2023-10-08T09:40:58;21.00;;;6.13;;
60436;SDS011;46289;51.992;4.498;2023-10-08T09:43:06;17.15;;;6.32;;
60436;SDS011;46289;51.992;4.498;2023-10-08T09:45:16;20.83;;;5.90;;
60436;SDS011;46289;51.992;4.498;2023-10-08T09:47:23;20.73;;;4.72;;
60436;SDS011;46289;51.992;4.498;2023-10-08T09:49:48;24.90;;;4.85;;
60436;SDS011;46289;51.992;4.498;2023-10-08T09:52:14;17.33;;;4.68;;
60436;SDS011;46289;51.992;4.498;2023-10-08T09:54:28;17.42;;;4.35;;
60436;SDS011;46289;51.992;4.498;2023-10-08T09:56:43;21.45;;;4.35;;
60436;SDS011;46289;51.992;4.498;2023-10-08T09:58:56;16.15;;;4.38;;
60436;SDS011;46289;51.992;4.498;2023-10-08T10:01:11;16.90;;;3.97;;
60436;SDS011;46289;51.992;4.498;2023-10-08T10:03:17;16.05;;;4.03;;
60436;SDS011;46289;51.992;4.498;2023-10-08T10:05:27;16.10;;;4.68;;
60436;SDS011;46289;51.992;4.498;2023-10-08T10:07:37;12.43;;;3.63;;
60436;SDS011;46289;51.992;4.498;2023-10-08T10:09:46;13.35;;;4.38;;
60436;SDS011;46289;51.992;4.498;2023-10-08T10:11:58;17.15;;;4.47;;
60436;SDS011;46289;51.992;4.498;2023-10-08T10:14:03;16.98;;;4.20;;
60436;SDS011;46289;51.992;4.498;2023-10-08T10:16:16;13.07;;;4.05;;
60436;SDS011;46289;51.992;4.498;2023-10-08T10:18:27;12.50;;;3.95;;
60436;SDS011;46289;51.992;4.498;2023-10-08T10:20:38;28.10;;;7.97;;
60436;SDS011;46289;51.992;4.498;2023-10-08T10:23:04;18.15;;;5.25;;
60436;SDS011;46289;51.992;4.498;2023-10-08T10:25:53;15.20;;;4.43;;
60436;SDS011;46289;51.992;4.498;2023-10-08T10:28:21;23.33;;;6.80;;
60436;SDS011;46289;51.992;4.498;2023-10-08T10:30:35;23.30;;;5.97;;
60436;SDS011;46289;51.992;4.498;2023-10-08T10:32:49;19.92;;;5.70;;
60436;SDS011;46289;51.992;4.498;2023-10-08T10:37:13;20.48;;;6.45;;
60436;SDS011;46289;51.992;4.498;2023-10-08T10:39:29;11.73;;;5.50;;
60436;SDS011;46289;51.992;4.498;2023-10-08T10:41:49;22.67;;;5.53;;
60436;SDS011;46289;51.992;4.498;2023-10-08T10:44:03;19.13;;;5.43;;
60436;SDS011;46289;51.992;4.498;2023-10-08T10:46:20;15.65;;;5.32;;
60436;SDS011;46289;51.992;4.498;2023-10-08T10:48:33;20.90;;;5.25;;
60436;SDS011;46289;51.992;4.498;2023-10-08T10:50:37;16.65;;;5.50;;
60436;SDS011;46289;51.992;4.498;2023-10-08T10:53:10;19.60;;;5.28;;
60436;SDS011;46289;51.992;4.498;2023-10-08T10:55:20;21.05;;;6.70;;
60436;SDS011;46289;51.992;4.498;2023-10-08T10:57:33;21.13;;;6.57;;
60436;SDS011;46289;51.992;4.498;2023-10-08T11:01:57;19.80;;;6.38;;
60436;SDS011;46289;51.992;4.498;2023-10-08T11:04:12;24.83;;;6.82;;
60436;SDS011;46289;51.992;4.498;2023-10-08T11:06:21;15.32;;;5.07;;
60436;SDS011;46289;51.992;4.498;2023-10-08T11:08:29;20.70;;;6.03;;
60436;SDS011;46289;51.992;4.498;2023-10-08T11:10:46;22.45;;;7.55;;
60436;SDS011;46289;51.992;4.498;2023-10-08T11:13:09;20.38;;;5.20;;
60436;SDS011;46289;51.992;4.498;2023-10-08T11:15:18;20.35;;;7.00;;
60436;SDS011;46289;51.992;4.498;2023-10-08T11:17:26;23.33;;;6.50;;
60436;SDS011;46289;51.992;4.498;2023-10-08T11:19:32;14.52;;;5.20;;
60436;SDS011;46289;51.992;4.498;2023-10-08T11:21:47;15.32;;;5.63;;
60436;SDS011;46289;51.992;4.498;2023-10-08T11:24:02;18.15;;;6.22;;
60436;SDS011;46289;51.992;4.498;2023-10-08T11:26:17;20.98;;;7.32;;
60436;SDS011;46289;51.992;4.498;2023-10-08T11:28:25;18.48;;;5.65;;
60436;SDS011;46289;51.992;4.498;2023-10-08T11:30:37;22.35;;;5.85;;
60436;SDS011;46289;51.992;4.498;2023-10-08T11:32:58;21.08;;;7.18;;
60436;SDS011;46289;51.992;4.498;2023-10-08T11:35:14;20.58;;;5.47;;
60436;SDS011;46289;51.992;4.498;2023-10-08T11:37:26;18.58;;;7.05;;
60436;SDS011;46289;51.992;4.498;2023-10-08T11:39:39;21.67;;;7.18;;
60436;SDS011;46289;51.992;4.498;2023-10-08T11:44:27;16.40;;;5.75;;
60436;SDS011;46289;51.992;4.498;2023-10-08T11:46:34;19.60;;;5.68;;
60436;SDS011;46289;51.992;4.498;2023-10-08T11:48:43;24.42;;;5.90;;
60436;SDS011;46289;51.992;4.498;2023-10-08T11:50:50;21.52;;;5.70;;
60436;SDS011;46289;51.992;4.498;2023-10-08T11:53:04;18.42;;;5.63;;
60436;SDS011;46289;51.992;4.498;2023-10-08T11:55:12;16.55;;;5.97;;
60436;SDS011;46289;51.992;4.498;2023-10-08T11:57:25;21.95;;;6.28;;
60436;SDS011;46289;51.992;4.498;2023-10-08T11:59:34;19.77;;;6.13;;
60436;SDS011;46289;51.992;4.498;2023-10-08T12:01:44;20.13;;;6.25;;
60436;SDS011;46289;51.992;4.498;2023-10-08T12:03:51;15.43;;;5.70;;
60436;SDS011;46289;51.992;4.498;2023-10-08T12:06:04;20.77;;;7.07;;
60436;SDS011;46289;51.992;4.498;2023-10-08T12:08:21;16.15;;;6.38;;
60436;SDS011;46289;51.992;4.498;2023-10-08T12:10:50;25.63;;;7.32;;
60436;SDS011;46289;51.992;4.498;2023-10-08T12:13:05;21.67;;;6.68;;
60436;SDS011;46289;51.992;4.498;2023-10-08T12:15:25;20.52;;;6.78;;
60436;SDS011;46289;51.992;4.498;2023-10-08T12:17:44;22.80;;;7.60;;
60436;SDS011;46289;51.992;4.498;2023-10-08T12:20:19;20.58;;;7.03;;
60436;SDS011;46289;51.992;4.498;2023-10-08T12:22:32;25.73;;;7.57;;
60436;SDS011;46289;51.992;4.498;2023-10-08T12:24:51;20.02;;;7.18;;
60436;SDS011;46289;51.992;4.498;2023-10-08T12:26:57;22.27;;;7.10;;
60436;SDS011;46289;51.992;4.498;2023-10-08T12:29:16;18.77;;;6.80;;
60436;SDS011;46289;51.992;4.498;2023-10-08T12:31:25;22.30;;;10.20;;
60436;SDS011;46289;51.992;4.498;2023-10-08T12:33:39;24.02;;;7.80;;
60436;SDS011;46289;51.992;4.498;2023-10-08T12:35:59;26.27;;;8.88;;
60436;SDS011;46289;51.992;4.498;2023-10-08T12:38:13;21.95;;;9.23;;
60436;SDS011;46289;51.992;4.498;2023-10-08T12:40:27;25.98;;;9.77;;
60436;SDS011;46289;51.992;4.498;2023-10-08T12:45:00;27.55;;;9.27;;
60436;SDS011;46289;51.992;4.498;2023-10-08T12:47:15;34.10;;;10.95;;
60436;SDS011;46289;51.992;4.498;2023-10-08T12:49:23;30.38;;;10.65;;
60436;SDS011;46289;51.992;4.498;2023-10-08T12:51:38;27.23;;;10.23;;
60436;SDS011;46289;51.992;4.498;2023-10-08T12:53:48;24.67;;;8.60;;
60436;SDS011;46289;51.992;4.498;2023-10-08T12:56:08;26.67;;;9.32;;
60436;SDS011;46289;51.992;4.498;2023-10-08T12:58:23;25.50;;;10.18;;
60436;SDS011;46289;51.992;4.498;2023-10-08T13:00:46;27.67;;;9.30;;
60436;SDS011;46289;51.992;4.498;2023-10-08T13:03:02;33.25;;;10.32;;
60436;SDS011;46289;51.992;4.498;2023-10-08T13:05:18;26.23;;;8.82;;
60436;SDS011;46289;51.992;4.498;2023-10-08T13:07:30;25.33;;;9.63;;
60436;SDS011;46289;51.992;4.498;2023-10-08T13:09:44;22.85;;;9.30;;
60436;SDS011;46289;51.992;4.498;2023-10-08T13:11:50;28.05;;;9.13;;
60436;SDS011;46289;51.992;4.498;2023-10-08T13:14:28;24.27;;;9.48;;
60436;SDS011;46289;51.992;4.498;2023-10-08T13:19:04;22.88;;;8.07;;
60436;SDS011;46289;51.992;4.498;2023-10-08T13:21:16;27.17;;;8.93;;
60436;SDS011;46289;51.992;4.498;2023-10-08T13:23:23;28.88;;;9.23;;
60436;SDS011;46289;51.992;4.498;2023-10-08T13:25:49;24.25;;;8.82;;
60436;SDS011;46289;51.992;4.498;2023-10-08T13:28:00;28.55;;;9.90;;
60436;SDS011;46289;51.992;4.498;2023-10-08T13:30:07;27.67;;;9.05;;
60436;SDS011;46289;51.992;4.498;2023-10-08T13:32:25;23.80;;;8.25;;
60436;SDS011;46289;51.992;4.498;2023-10-08T13:34:35;29.77;;;9.20;;
60436;SDS011;46289;51.992;4.498;2023-10-08T13:36:45;18.80;;;8.60;;
60436;SDS011;46289;51.992;4.498;2023-10-08T13:38:55;23.20;;;8.93;;
60436;SDS011;46289;51.992;4.498;2023-10-08T13:41:09;27.30;;;10.23;;
60436;SDS011;46289;51.992;4.498;2023-10-08T13:43:34;26.40;;;8.77;;
60436;SDS011;46289;51.992;4.498;2023-10-08T13:45:46;27.55;;;9.18;;
60436;SDS011;46289;51.992;4.498;2023-10-08T13:47:58;25.77;;;9.52;;